createdAt,value
2018-09-30T16:02:47.188Z,1.93
2018-09-30T16:05:15.366Z,1.90
2018-09-30T16:07:43.540Z,2.37
2018-09-30T16:10:11.698Z,1.90
2018-09-30T16:12:39.901Z,2.20
2018-09-30T16:15:08.057Z,2.37
2018-09-30T16:17:36.232Z,1.90
2018-09-30T16:20:04.552Z,2.40
2018-09-30T16:22:32.736Z,2.13
2018-09-30T16:25:00.933Z,2.10
2018-09-30T16:27:29.138Z,2.00
2018-09-30T16:29:57.292Z,2.23
2018-09-30T16:32:25.497Z,2.10
2018-09-30T16:34:53.678Z,2.63
2018-09-30T16:37:22.705Z,1.77
2018-09-30T16:39:50.873Z,2.13
2018-09-30T16:42:19.078Z,2.03
2018-09-30T16:44:47.227Z,2.27
2018-09-30T16:47:15.387Z,2.50
2018-09-30T16:49:43.885Z,2.00
2018-09-30T16:52:12.021Z,2.03
2018-09-30T16:54:40.394Z,2.33
2018-09-30T16:57:08.562Z,2.07
2018-09-30T16:59:36.754Z,1.80
2018-09-30T17:02:04.960Z,2.50
2018-09-30T17:04:33.101Z,2.80
2018-09-30T17:07:01.246Z,3.30
2018-09-30T17:09:29.409Z,2.67
2018-09-30T17:11:57.565Z,2.20
2018-09-30T17:14:25.729Z,1.77
2018-09-30T17:16:53.956Z,2.40
2018-09-30T17:19:22.144Z,2.67
2018-09-30T17:21:50.308Z,3.50
2018-09-30T17:24:18.446Z,4.30
2018-09-30T17:26:46.624Z,2.90
2018-09-30T17:29:14.788Z,5.00
2018-09-30T17:31:42.929Z,3.27
2018-09-30T17:34:11.096Z,2.13
2018-09-30T17:36:39.252Z,2.40
2018-09-30T17:39:08.619Z,2.00
2018-09-30T17:41:36.781Z,4.00
2018-09-30T17:44:05.056Z,3.50
2018-09-30T17:46:33.157Z,3.87
2018-09-30T17:49:01.316Z,3.73
2018-09-30T17:51:29.485Z,3.80
2018-09-30T17:53:57.655Z,3.10
2018-09-30T17:56:25.856Z,3.77
2018-09-30T17:58:54.044Z,2.53
2018-09-30T18:01:22.216Z,2.80
2018-09-30T18:03:50.428Z,2.77
2018-09-30T18:06:18.579Z,3.33
2018-09-30T18:08:46.736Z,3.03
2018-09-30T18:11:14.900Z,3.17
2018-09-30T18:13:43.049Z,3.27
2018-09-30T18:16:11.222Z,3.60
2018-09-30T18:18:39.405Z,2.83
2018-09-30T18:21:07.583Z,4.03
2018-09-30T18:23:35.823Z,2.50
2018-09-30T18:26:04.073Z,3.17
2018-09-30T18:28:32.329Z,3.37
2018-09-30T18:31:00.495Z,3.93
2018-09-30T18:33:28.680Z,4.43
2018-09-30T18:35:56.874Z,3.73
2018-09-30T18:38:25.115Z,3.27
2018-09-30T18:40:53.337Z,3.50
2018-09-30T18:43:21.514Z,3.67
2018-09-30T18:45:49.700Z,4.53
2018-09-30T18:48:17.898Z,5.30
2018-09-30T18:50:46.068Z,3.70
2018-09-30T18:53:14.255Z,4.20
2018-09-30T18:55:42.435Z,5.60
2018-09-30T18:58:10.614Z,3.87
2018-09-30T19:00:38.781Z,5.00
2018-09-30T19:03:06.945Z,7.30
2018-09-30T19:05:35.154Z,5.47
2018-09-30T19:08:03.390Z,4.97
2018-09-30T19:10:31.633Z,4.50
2018-09-30T19:12:59.824Z,4.20
2018-09-30T19:15:28.007Z,5.00
2018-09-30T19:17:56.173Z,4.27
2018-09-30T19:20:24.373Z,3.60
2018-09-30T19:22:52.880Z,4.60
2018-09-30T19:25:21.058Z,3.90
2018-09-30T19:27:49.222Z,4.50
2018-09-30T19:30:17.453Z,4.63
2018-09-30T19:32:45.562Z,4.00
2018-09-30T19:35:13.769Z,4.70
2018-09-30T19:37:41.945Z,4.90
2018-09-30T19:40:10.104Z,4.47
2018-09-30T19:42:38.257Z,3.87
2018-09-30T19:45:06.425Z,4.70
2018-09-30T19:47:34.594Z,4.70
2018-09-30T19:50:02.750Z,4.53
2018-09-30T19:52:30.900Z,4.13
2018-09-30T19:54:59.089Z,3.67
2018-09-30T19:57:27.248Z,4.30
2018-09-30T19:59:55.424Z,3.90
2018-09-30T20:02:23.577Z,3.10
2018-09-30T20:04:51.753Z,3.90
2018-09-30T20:07:19.925Z,4.43
2018-09-30T20:09:48.111Z,3.53
2018-09-30T20:12:16.261Z,4.70
2018-09-30T20:14:44.434Z,5.57
2018-09-30T20:17:12.593Z,4.50
2018-09-30T20:19:40.745Z,4.23
2018-09-30T20:22:10.465Z,5.10
2018-09-30T20:24:38.656Z,3.67
2018-09-30T20:27:06.825Z,4.63
2018-09-30T20:29:35.867Z,4.70
2018-09-30T20:32:04.076Z,4.13
2018-09-30T20:34:32.304Z,6.37
2018-09-30T20:37:00.506Z,4.80
2018-09-30T20:39:28.640Z,4.73
2018-09-30T20:41:56.836Z,4.80
2018-09-30T20:44:25.010Z,4.97
2018-09-30T20:46:53.174Z,4.73
2018-09-30T20:49:21.336Z,5.00
2018-09-30T20:51:49.507Z,5.30
2018-09-30T20:54:17.715Z,5.33
2018-09-30T20:56:46.296Z,5.07
2018-09-30T20:59:14.463Z,6.83
2018-09-30T21:01:49.321Z,6.87
2018-09-30T21:04:17.508Z,5.53
2018-09-30T21:06:45.909Z,4.33
2018-09-30T21:09:15.846Z,5.20
2018-09-30T21:11:43.990Z,6.43
2018-09-30T21:14:12.186Z,5.70
2018-09-30T21:16:40.357Z,5.70
2018-09-30T21:19:08.850Z,5.40
2018-09-30T21:21:37.036Z,5.80
2018-09-30T21:24:05.196Z,6.27
2018-09-30T21:26:33.383Z,6.20
2018-09-30T21:29:01.545Z,6.30
2018-09-30T21:31:29.704Z,5.83
2018-09-30T21:33:57.868Z,5.10
2018-09-30T21:36:26.046Z,5.20
2018-09-30T21:38:54.223Z,5.23
2018-09-30T21:41:22.419Z,5.13
2018-09-30T21:43:50.590Z,5.03
2018-09-30T21:46:18.745Z,5.80
2018-09-30T21:48:46.953Z,7.90
2018-09-30T21:51:15.060Z,5.60
2018-09-30T21:53:43.200Z,7.50
2018-09-30T21:56:11.380Z,6.27
2018-09-30T21:58:39.536Z,6.60
